Station Historical Data
Daily Summary for June 1, 2017 Units:  Metric    English   Both
« Previous Day
Next Day »
Daily Weekly Monthly Yearly Custom
  High: Low: Average:
Temperature: 28.2 °C 18.8 °C 22.9 °C
Dew Point: 20.1 °C 14.7 °C 17.8 °C
Humidity: 93% 46% 75%
Wind Speed: 0km/h 0km/h 0km/h
Wind Gust: 4.8km/h - -
Wind- -
Pressure: 1020.2 hPa 1016.8 hPa -
Precipitation: 0 mm    
Historical Graphs
 
 
Tabular Data for June 1, 2017
Time Temperature Dew Point Pressure Wind Wind Speed Wind Gust Humidity Rainfall Rate (Hourly) solar Conditions
00:00 20.7 °C 18.4 °C 1019.2 hPa Calm     87% 0 mm WeatherDisplay:10.37 W/m2 SCT
00:10 20.7 °C 18.4 °C 1019.2 hPa Calm     87% 0 mm WeatherDisplay:10.37 W/m2 SCT
00:20 20.6 °C 18.6 °C 1018.8 hPa Calm     88% 0 mm WeatherDisplay:10.37 W/m2 SCT
00:30 20.6 °C 18.6 °C 1018.8 hPa Calm     88% 0 mm WeatherDisplay:10.37 W/m2 SCT
00:40 20.6 °C 18.5 °C 1018.8 hPa Calm     88% 0 mm WeatherDisplay:10.37 W/m2 SCT
00:50 20.4 °C 18.4 °C 1018.8 hPa Calm     88% 0 mm WeatherDisplay:10.37 W/m2 SCT
01:00 20.3 °C 18.4 °C 1018.8 hPa Calm     89% 0 mm WeatherDisplay:10.37 W/m2 SCT
01:10 20.3 °C 18.4 °C 1018.8 hPa Calm     89% 0 mm WeatherDisplay:10.37 W/m2 SCT
01:20 20.2 °C 18.6 °C 1018.8 hPa Calm     90% 0 mm WeatherDisplay:10.37 W/m2 SCT
01:30 20.1 °C 18.4 °C 1018.8 hPa Calm     90% 0 mm WeatherDisplay:10.37 W/m2 SCT
01:40 20.1 °C 18.4 °C 1018.8 hPa Calm     90% 0 mm WeatherDisplay:10.37 W/m2 SCT
01:50 19.9 °C 18.3 °C 1018.8 hPa Calm     90% 0 mm WeatherDisplay:10.37 W/m2 SCT
02:00 19.9 °C 18.2 °C 1018.8 hPa Calm     90% 0 mm WeatherDisplay:10.37 W/m2 SCT
02:10 19.8 °C 18.3 °C 1018.5 hPa Calm     91% 0 mm WeatherDisplay:10.37 W/m2 SCT
02:20 19.8 °C 18.3 °C 1018.5 hPa Calm     91% 0 mm WeatherDisplay:10.37 W/m2 SCT
02:30 19.6 °C 18.1 °C 1018.5 hPa Calm     91% 0 mm WeatherDisplay:10.37 W/m2 SCT
02:40 19.5 °C 18 °C 1018.5 hPa Calm     91% 0 mm WeatherDisplay:10.37 W/m2 SCT
02:50 19.4 °C 17.9 °C 1018.5 hPa Calm     91% 0 mm WeatherDisplay:10.37 W/m2 SCT
03:00 18.8 °C 17.2 °C 1018.5 hPa Calm     90% 0 mm WeatherDisplay:10.37 W/m2 SCT
03:10 18.8 °C 17.2 °C 1018.5 hPa Calm     90% 0 mm WeatherDisplay:10.37 W/m2 SCT
03:20 18.8 °C 17.2 °C 1018.2 hPa Calm     90% 0 mm WeatherDisplay:10.37 W/m2 SCT
03:30 18.8 °C 17.2 °C 1018.5 hPa Calm     90% 0 mm WeatherDisplay:10.37 W/m2 SCT
03:40 18.8 °C 17.2 °C 1018.5 hPa Calm     90% 0 mm WeatherDisplay:10.37 W/m2 SCT
03:50 18.8 °C 17.2 °C 1018.5 hPa Calm     90% 0 mm WeatherDisplay:10.37 W/m2 SCT
04:00 18.8 °C 17.2 °C 1018.2 hPa Calm     90% 0 mm WeatherDisplay:10.37 W/m2 SCT
04:10 18.8 °C 17.2 °C 1018.2 hPa Calm     90% 0 mm WeatherDisplay:10.37 W/m2 SCT
04:20 18.8 °C 17.2 °C 1018.2 hPa Calm     90% 0 mm WeatherDisplay:10.37 W/m2 SCT
04:30 18.8 °C 17.2 °C 1018.5 hPa Calm     90% 0 mm WeatherDisplay:10.37 W/m2 SCT
04:40 18.8 °C 17.2 °C 1018.5 hPa Calm     90% 0 mm WeatherDisplay:10.37 W/m2 SCT
04:50 18.8 °C 17.2 °C 1018.5 hPa Calm     90% 0 mm WeatherDisplay:10.37 W/m2 SCT
05:00 18.8 °C 17.2 °C 1018.5 hPa Calm     90% 0 mm WeatherDisplay:10.37 W/m2 SCT
05:10 18.8 °C 17.2 °C 1018.5 hPa Calm     90% 0 mm WeatherDisplay:10.37 W/m2 SCT
05:20 18.8 °C 17.2 °C 1018.5 hPa Calm     90% 0 mm WeatherDisplay:10.37 W/m2 SCT
05:30 18.8 °C 17.2 °C 1018.5 hPa Calm     90% 0 mm WeatherDisplay:10.37 W/m2 SCT
05:40 18.8 °C 17.2 °C 1018.5 hPa Calm     90% 0 mm WeatherDisplay:10.37 W/m2 SCT
05:50 18.8 °C 17.2 °C 1018.8 hPa Calm     90% 0 mm WeatherDisplay:10.37 W/m2 SCT
06:00 18.8 °C 17.2 °C 1019.2 hPa Calm     90% 0 mm WeatherDisplay:10.37 W/m2 SCT
06:10 18.8 °C 17.2 °C 1019.2 hPa Calm     90% 0 mm WeatherDisplay:10.37 W/m2 SCT
06:20 18.8 °C 17.2 °C 1019.2 hPa Calm     90% 0 mm WeatherDisplay:10.37 W/m2 SCT
06:30 18.8 °C 17.2 °C 1019.2 hPa Calm     90% 0 mm WeatherDisplay:10.37 W/m2 SCT
06:40 18.8 °C 17.2 °C 1019.5 hPa Calm     90% 0 mm WeatherDisplay:10.37 W/m2 SCT
06:50 18.8 °C 17.2 °C 1019.5 hPa Calm     90% 0 mm WeatherDisplay:10.37 W/m2 SCT
07:00 18.8 °C 17.2 °C 1019.5 hPa Calm     90% 0 mm WeatherDisplay:10.37 W/m2 SCT
07:10 18.8 °C 17.2 °C 1019.5 hPa Calm     90% 0 mm WeatherDisplay:10.37 W/m2 SCT
07:20 18.8 °C 17.2 °C 1019.9 hPa Calm     90% 0 mm WeatherDisplay:10.37 W/m2 SCT
07:30 18.8 °C 17.2 °C 1019.9 hPa Calm     90% 0 mm WeatherDisplay:10.37 W/m2 SCT
07:40 19.1 °C 17.9 °C 1019.9 hPa Calm     93% 0 mm WeatherDisplay:10.37 W/m2 SCT
07:50 19.4 °C 18.2 °C 1019.5 hPa Calm   1.6 km/h 93% 0 mm WeatherDisplay:10.37 W/m2 SCT
08:00 19.7 °C 18.4 °C 1019.5 hPa Calm   1.6 km/h 92% 0 mm WeatherDisplay:10.37 W/m2 SCT
08:10 20 °C 18.7 °C 1019.9 hPa Calm   1.6 km/h 92% 0 mm WeatherDisplay:10.37 W/m2 SCT
08:20 20.2 °C 18.7 °C 1019.9 hPa Calm   1.6 km/h 91% 0 mm WeatherDisplay:10.37 W/m2 SCT
08:30 20.5 °C 18.8 °C 1019.9 hPa Calm     90% 0 mm WeatherDisplay:10.37 W/m2 SCT
08:40 20.8 °C 19.1 °C 1019.9 hPa Calm   1.6 km/h 90% 0 mm WeatherDisplay:10.37 W/m2 SCT
08:50 21.1 °C 19.2 °C 1019.9 hPa Calm   1.6 km/h 89% 0 mm WeatherDisplay:10.37 W/m2 SCT
09:00 21.4 °C 19.6 °C 1019.9 hPa Calm   1.6 km/h 89% 0 mm WeatherDisplay:10.37 W/m2 SCT
09:10 21.8 °C 19.6 °C 1019.9 hPa Calm     87% 0 mm WeatherDisplay:10.37 W/m2 SCT
09:20 22.1 °C 19.3 °C 1019.9 hPa Calm   1.6 km/h 84% 0 mm WeatherDisplay:10.37 W/m2 SCT
09:30 22.3 °C 19.1 °C 1020.2 hPa Calm   1.6 km/h 82% 0 mm WeatherDisplay:10.37 W/m2 SCT
09:40 22.7 °C 19.4 °C 1020.2 hPa Calm   1.6 km/h 82% 0 mm WeatherDisplay:10.37 W/m2 SCT
09:50 23.1 °C 20 °C 1019.9 hPa Calm   1.6 km/h 83% 0 mm WeatherDisplay:10.37 W/m2 SCT
10:00 23.3 °C 19.7 °C 1019.9 hPa Calm     80% 0 mm WeatherDisplay:10.37 W/m2 SCT
10:10 23.8 °C 19.3 °C 1019.9 hPa Calm     76% 0 mm WeatherDisplay:10.37 W/m2 SCT
10:20 24.3 °C 19.6 °C 1019.9 hPa Calm     75% 0 mm WeatherDisplay:10.37 W/m2 SCT
10:30 24.8 °C 19.7 °C 1019.9 hPa Calm     73% 0 mm WeatherDisplay:10.37 W/m2 SCT
10:40 25.5 °C 20.1 °C 1019.9 hPa Calm     72% 0 mm WeatherDisplay:10.37 W/m2 SCT
11:00 25.9 °C 19 °C 1019.9 hPa Calm     66% 0 mm WeatherDisplay:10.37 W/m2 SCT
11:10 26.1 °C 18.7 °C 1019.9 hPa Calm   1.6 km/h 64% 0 mm WeatherDisplay:10.37 W/m2 SCT
11:20 26.3 °C 17.6 °C 1019.9 hPa Calm     59% 0 mm WeatherDisplay:10.37 W/m2 SCT
11:30 26.3 °C 18.2 °C 1019.9 hPa Calm   1.6 km/h 61% 0 mm WeatherDisplay:10.37 W/m2 SCT
11:40 26.4 °C 18 °C 1019.9 hPa Calm   3.2 km/h 60% 0 mm WeatherDisplay:10.37 W/m2 SCT
11:50 26.4 °C 17.7 °C 1019.9 hPa Calm   1.6 km/h 59% 0 mm WeatherDisplay:10.37 W/m2 SCT
12:00 26.3 °C 17.1 °C 1019.9 hPa Calm   1.6 km/h 57% 0 mm WeatherDisplay:10.37 W/m2 SCT
12:10 26.3 °C 17.7 °C 1019.9 hPa Calm   3.2 km/h 59% 0 mm WeatherDisplay:10.37 W/m2 SCT
12:20 26.5 °C 18.4 °C 1019.9 hPa Calm   1.6 km/h 61% 0 mm WeatherDisplay:10.37 W/m2 SCT
12:30 26.7 °C 19.1 °C 1019.9 hPa Calm   1.6 km/h 63% 0 mm WeatherDisplay:10.37 W/m2 SCT
12:40 26.8 °C 18.6 °C 1019.9 hPa Calm   1.6 km/h 61% 0 mm WeatherDisplay:10.37 W/m2 SCT
12:50 27.1 °C 17.2 °C 1019.5 hPa Calm   3.2 km/h 55% 0 mm WeatherDisplay:10.37 W/m2 SCT
13:00 27.3 °C 14.7 °C 1019.5 hPa Calm   3.2 km/h 46% 0 mm WeatherDisplay:10.37 W/m2 SCT
13:10 27.9 °C 17.2 °C 1019.5 hPa Calm   3.2 km/h 52% 0 mm WeatherDisplay:10.37 W/m2 SCT
13:20 28.2 °C 16.8 °C 1019.5 hPa Calm   1.6 km/h 50% 0 mm WeatherDisplay:10.37 W/m2 SCT
13:30 27.8 °C 17.9 °C 1019.5 hPa Calm   3.2 km/h 55% 0 mm WeatherDisplay:10.37 W/m2 SCT
13:40 27.7 °C 17.6 °C 1019.2 hPa Calm   1.6 km/h 54% 0 mm WeatherDisplay:10.37 W/m2 SCT
13:50 27.8 °C 17 °C 1019.2 hPa Calm   1.6 km/h 52% 0 mm WeatherDisplay:10.37 W/m2 SCT
14:00 27.6 °C 16.2 °C 1018.8 hPa Calm   1.6 km/h 50% 0 mm WeatherDisplay:10.37 W/m2 SCT
14:10 27.3 °C 17.2 °C 1018.8 hPa Calm   1.6 km/h 54% 0 mm WeatherDisplay:10.37 W/m2 SCT
14:20 27.3 °C 15.7 °C 1018.8 hPa Calm   1.6 km/h 49% 0 mm WeatherDisplay:10.37 W/m2 SCT
14:30 27.6 °C 17.2 °C 1018.5 hPa Calm   4.8 km/h 53% 0 mm WeatherDisplay:10.37 W/m2 SCT
14:40 27.8 °C 16.7 °C 1018.5 hPa Calm   3.2 km/h 51% 0 mm WeatherDisplay:10.37 W/m2 SCT
14:50 27.7 °C 17 °C 1018.5 hPa Calm   3.2 km/h 52% 0 mm WeatherDisplay:10.37 W/m2 SCT
15:00 28.1 °C 16.7 °C 1018.5 hPa Calm   1.6 km/h 50% 0 mm WeatherDisplay:10.37 W/m2 SCT
15:10 27.8 °C 16.1 °C 1018.2 hPa Calm   1.6 km/h 49% 0 mm WeatherDisplay:10.37 W/m2 SCT
15:20 27.5 °C 16.2 °C 1018.2 hPa Calm   1.6 km/h 50% 0 mm WeatherDisplay:10.37 W/m2 SCT
15:30 27.7 °C 16.1 °C 1018.2 hPa Calm   3.2 km/h 49% 0 mm WeatherDisplay:10.37 W/m2 SCT
15:40 27.3 °C 15.3 °C 1017.8 hPa Calm   3.2 km/h 48% 0 mm WeatherDisplay:10.37 W/m2 SCT
15:50 27.1 °C 16.4 °C 1017.8 hPa Calm   1.6 km/h 52% 0 mm WeatherDisplay:10.37 W/m2 SCT
16:00 27.1 °C 16.1 °C 1017.8 hPa Calm   1.6 km/h 51% 0 mm WeatherDisplay:10.37 W/m2 SCT
16:10 26.9 °C 17.1 °C 1017.8 hPa Calm   1.6 km/h 55% 0 mm WeatherDisplay:10.37 W/m2 SCT
16:20 26.9 °C 15.9 °C 1017.8 hPa Calm   1.6 km/h 51% 0 mm WeatherDisplay:10.37 W/m2 SCT
16:30 26.9 °C 16.3 °C 1017.5 hPa Calm   1.6 km/h 52% 0 mm WeatherDisplay:10.37 W/m2 SCT
16:40 26.8 °C 15.2 °C 1017.5 hPa Calm   1.6 km/h 49% 0 mm WeatherDisplay:10.37 W/m2 SCT
16:50 26.4 °C 16.1 °C 1017.5 hPa Calm   1.6 km/h 53% 0 mm WeatherDisplay:10.37 W/m2 SCT
17:00 26.1 °C 15.8 °C 1017.5 hPa Calm   1.6 km/h 53% 0 mm WeatherDisplay:10.37 W/m2 SCT
17:10 25.8 °C 16.1 °C 1017.5 hPa Calm   1.6 km/h 55% 0 mm WeatherDisplay:10.37 W/m2 SCT
17:20 25.8 °C 17.2 °C 1017.5 hPa Calm     59% 0 mm WeatherDisplay:10.37 W/m2 SCT
17:30 26.1 °C 17.9 °C 1017.5 hPa Calm     61% 0 mm WeatherDisplay:10.37 W/m2 SCT
17:40 26.2 °C 17 °C 1017.5 hPa Calm     57% 0 mm WeatherDisplay:10.37 W/m2 SCT
17:50 26.3 °C 17.9 °C 1017.2 hPa Calm     60% 0 mm WeatherDisplay:10.37 W/m2 SCT
18:00 26.1 °C 18 °C 1017.2 hPa Calm     61% 0 mm WeatherDisplay:10.37 W/m2 SCT
18:10 25.7 °C 17.8 °C 1017.2 hPa Calm     62% 0 mm WeatherDisplay:10.37 W/m2 SCT
18:20 25.5 °C 17.7 °C 1017.2 hPa Calm     62% 0 mm WeatherDisplay:10.37 W/m2 SCT
18:30 25.3 °C 17.5 °C 1017.2 hPa Calm     62% 0 mm WeatherDisplay:10.37 W/m2 SCT
18:40 25.1 °C 17.8 °C 1016.8 hPa Calm     64% 0 mm WeatherDisplay:10.37 W/m2 SCT
19:00 24.7 °C 17.4 °C 1016.8 hPa Calm     64% 0 mm WeatherDisplay:10.37 W/m2 SCT
19:10 24.7 °C 17.4 °C 1016.8 hPa Calm     64% 0 mm WeatherDisplay:10.37 W/m2 SCT
19:20 24.7 °C 17.7 °C 1016.8 hPa Calm     65% 0 mm WeatherDisplay:10.37 W/m2 SCT
19:30 24.6 °C 18.1 °C 1017.2 hPa Calm     67% 0 mm WeatherDisplay:10.37 W/m2 SCT
19:40 24.5 °C 17.9 °C 1017.2 hPa Calm     67% 0 mm WeatherDisplay:10.37 W/m2 SCT
19:50 24.3 °C 18 °C 1017.2 hPa Calm     68% 0 mm WeatherDisplay:10.37 W/m2 SCT
20:00 24.1 °C 18.1 °C 1017.2 hPa Calm     69% 0 mm WeatherDisplay:10.37 W/m2 SCT
20:10 23.9 °C 17.6 °C 1017.2 hPa Calm     68% 0 mm WeatherDisplay:10.37 W/m2 SCT
20:20 23.5 °C 18.2 °C 1017.5 hPa Calm     72% 0 mm WeatherDisplay:10.37 W/m2 SCT
20:30 23.3 °C 18.7 °C 1017.5 hPa Calm     75% 0 mm WeatherDisplay:10.37 W/m2 SCT
20:40 23.3 °C 19 °C 1017.5 hPa Calm     77% 0 mm WeatherDisplay:10.37 W/m2 SCT
20:50 23.2 °C 19.1 °C 1017.5 hPa Calm     78% 0 mm WeatherDisplay:10.37 W/m2 SCT
21:00 23 °C 19.2 °C 1017.5 hPa Calm     79% 0 mm WeatherDisplay:10.37 W/m2 SCT
21:10 22.8 °C 19.2 °C 1017.8 hPa Calm     80% 0 mm WeatherDisplay:10.37 W/m2 SCT
21:20 22.6 °C 19 °C 1017.5 hPa Calm     80% 0 mm WeatherDisplay:10.37 W/m2 SCT
21:30 22.4 °C 19 °C 1017.8 hPa Calm     81% 0 mm WeatherDisplay:10.37 W/m2 SCT
21:40 22.3 °C 19.1 °C 1017.8 hPa Calm     82% 0 mm WeatherDisplay:10.37 W/m2 SCT
21:50 22.2 °C 18.9 °C 1017.8 hPa Calm     82% 0 mm WeatherDisplay:10.37 W/m2 SCT
22:00 22 °C 18.8 °C 1017.8 hPa Calm     82% 0 mm WeatherDisplay:10.37 W/m2 SCT
22:10 21.9 °C 18.9 °C 1017.8 hPa Calm     83% 0 mm WeatherDisplay:10.37 W/m2 SCT
22:20 21.8 °C 18.8 °C 1017.8 hPa Calm     83% 0 mm WeatherDisplay:10.37 W/m2 SCT
22:30 21.7 °C 18.8 °C 1017.8 hPa Calm     84% 0 mm WeatherDisplay:10.37 W/m2 SCT
22:40 21.6 °C 18.7 °C 1018.2 hPa Calm     84% 0 mm WeatherDisplay:10.37 W/m2 SCT
22:50 21.5 °C 18.5 °C 1018.2 hPa Calm     83% 0 mm WeatherDisplay:10.37 W/m2 SCT
23:00 21.4 °C 18.6 °C 1018.2 hPa Calm     84% 0 mm WeatherDisplay:10.37 W/m2 SCT
23:10 21.3 °C 18.5 °C 1018.5 hPa Calm     84% 0 mm WeatherDisplay:10.37 W/m2 SCT
23:20 21.2 °C 18.6 °C 1018.5 hPa Calm     85% 0 mm WeatherDisplay:10.37 W/m2 SCT
23:30 21.1 °C 18.5 °C 1018.5 hPa Calm     85% 0 mm WeatherDisplay:10.37 W/m2 SCT
23:40 21.1 °C 18.4 °C 1018.2 hPa Calm     85% 0 mm WeatherDisplay:10.37 W/m2 SCT
23:50 21 °C 18.6 °C 1018.5 hPa Calm     86% 0 mm WeatherDisplay:10.37 W/m2 SCT
Piedmont Bend
Compliments of Weather Underground - 4 mb